createdAt,value
2018-09-18T00:01:09.483Z,5.30
2018-09-18T00:03:38.259Z,5.00
2018-09-18T00:06:07.219Z,5.43
2018-09-18T00:08:36.636Z,4.97
2018-09-18T00:11:05.459Z,5.70
2018-09-18T00:13:35.196Z,5.00
2018-09-18T00:16:04.324Z,5.50
2018-09-18T00:18:33.549Z,5.50
2018-09-18T00:21:02.483Z,5.70
2018-09-18T00:23:32.039Z,4.97
2018-09-18T00:26:01.029Z,5.90
2018-09-18T00:28:30.136Z,5.90
2018-09-18T00:30:58.934Z,5.40
2018-09-18T00:33:28.182Z,6.10
2018-09-18T00:35:57.772Z,5.80
2018-09-18T00:38:27.288Z,5.73
2018-09-18T00:40:56.071Z,5.70
2018-09-18T00:43:25.560Z,5.97
2018-09-18T00:45:54.535Z,6.23
2018-09-18T00:48:23.552Z,6.33
2018-09-18T00:50:53.050Z,6.07
2018-09-18T00:53:21.823Z,5.73
2018-09-18T00:55:50.819Z,6.13
2018-09-18T00:58:19.785Z,6.10
2018-09-18T01:00:49.418Z,6.97
2018-09-18T01:03:19.085Z,6.80
2018-09-18T01:05:48.009Z,6.13
2018-09-18T01:08:16.890Z,6.67
2018-09-18T01:10:46.515Z,6.50
2018-09-18T01:13:15.760Z,5.87
2018-09-18T01:15:44.676Z,6.27
2018-09-18T01:18:13.683Z,6.63
2018-09-18T01:20:42.684Z,6.63
2018-09-18T01:23:11.396Z,7.00
2018-09-18T01:25:40.180Z,6.80
2018-09-18T01:28:08.921Z,6.63
2018-09-18T01:30:37.909Z,6.23
2018-09-18T01:33:08.743Z,6.10
2018-09-18T01:35:38.192Z,6.60
2018-09-18T01:38:07.113Z,6.63
2018-09-18T01:40:36.766Z,7.40
2018-09-18T01:43:05.745Z,7.20
2018-09-18T01:45:35.553Z,6.30
2018-09-18T01:48:04.940Z,6.20
2018-09-18T01:50:33.725Z,6.97
2018-09-18T01:53:02.485Z,5.80
2018-09-18T01:55:31.480Z,7.40
2018-09-18T01:58:01.001Z,6.93
2018-09-18T02:00:30.549Z,6.80
2018-09-18T02:02:59.364Z,6.33
2018-09-18T02:05:29.019Z,6.57
2018-09-18T02:07:58.288Z,6.97
2018-09-18T02:10:27.232Z,7.47
2018-09-18T02:12:56.093Z,7.80
2018-09-18T02:15:25.462Z,7.70
2018-09-18T02:17:54.372Z,7.43
2018-09-18T02:20:23.201Z,7.47
2018-09-18T02:22:52.089Z,7.27
2018-09-18T02:25:20.888Z,7.83
2018-09-18T02:27:49.772Z,7.60
2018-09-18T02:30:19.500Z,7.50
2018-09-18T02:32:48.334Z,7.60
2018-09-18T02:35:17.346Z,7.57
2018-09-18T02:37:47.003Z,6.60
2018-09-18T02:40:16.653Z,7.60
2018-09-18T02:42:46.117Z,7.70
2018-09-18T02:45:15.105Z,8.10
2018-09-18T02:47:44.065Z,8.30
2018-09-18T02:50:13.377Z,8.60
2018-09-18T02:52:42.157Z,8.63
2018-09-18T02:55:11.825Z,8.20
2018-09-18T02:57:41.314Z,7.43
2018-09-18T03:00:10.076Z,7.97
2018-09-18T03:02:39.601Z,7.30
2018-09-18T03:05:08.363Z,8.10
2018-09-18T03:07:37.613Z,7.60
2018-09-18T03:10:07.036Z,7.63
2018-09-18T03:12:35.904Z,7.90
2018-09-18T03:15:04.776Z,8.40
2018-09-18T03:17:33.662Z,8.10
2018-09-18T03:20:03.389Z,8.63
2018-09-18T03:22:32.203Z,8.70
2018-09-18T03:25:01.570Z,8.20
2018-09-18T03:27:30.739Z,8.00
2018-09-18T03:29:59.566Z,8.53
2018-09-18T03:32:29.112Z,8.43
2018-09-18T03:34:58.681Z,8.70
2018-09-18T03:37:29.094Z,8.20
2018-09-18T03:39:57.822Z,8.50
2018-09-18T03:42:27.336Z,9.50
2018-09-18T03:44:56.120Z,9.40
2018-09-18T03:47:24.836Z,10.23
2018-09-18T03:49:54.067Z,10.00
2018-09-18T03:52:22.960Z,9.70
2018-09-18T03:54:52.300Z,8.80
2018-09-18T03:57:21.850Z,9.73
2018-09-18T03:59:50.766Z,10.23
2018-09-18T04:02:19.655Z,9.40
2018-09-18T04:04:48.526Z,10.20
2018-09-18T04:07:17.290Z,9.53
2018-09-18T04:09:46.051Z,9.33
2018-09-18T04:12:14.968Z,9.80
2018-09-18T04:14:43.923Z,9.57
2018-09-18T04:17:12.914Z,9.27
2018-09-18T04:19:41.752Z,10.23
2018-09-18T04:22:11.276Z,9.50
2018-09-18T04:24:40.335Z,9.73
2018-09-18T04:27:09.330Z,10.50
2018-09-18T04:29:38.873Z,10.20
2018-09-18T04:32:08.443Z,10.23
2018-09-18T04:34:37.850Z,10.77
2018-09-18T04:37:06.691Z,10.23
2018-09-18T04:39:36.082Z,10.20
2018-09-18T04:42:05.729Z,10.20
2018-09-18T04:44:34.604Z,10.13
2018-09-18T04:47:03.502Z,10.00
2018-09-18T04:49:32.975Z,10.37
2018-09-18T04:52:02.620Z,10.50
2018-09-18T04:54:31.467Z,10.10
2018-09-18T04:57:00.285Z,10.20
2018-09-18T04:59:29.215Z,9.87
2018-09-18T05:01:59.056Z,9.80
2018-09-18T05:04:28.213Z,9.87
2018-09-18T05:06:57.144Z,10.03
2018-09-18T05:09:26.734Z,10.00
2018-09-18T05:11:56.172Z,9.67
2018-09-18T05:14:25.940Z,9.60
2018-09-18T05:16:54.679Z,10.33
2018-09-18T05:19:23.581Z,9.57
2018-09-18T05:21:52.402Z,9.10
2018-09-18T05:24:21.196Z,9.07
2018-09-18T05:26:50.643Z,9.27
2018-09-18T05:29:19.396Z,10.20
2018-09-18T05:31:48.790Z,9.67
2018-09-18T05:34:18.247Z,9.20
2018-09-18T05:36:47.897Z,9.40
2018-09-18T05:39:17.257Z,9.43
2018-09-18T05:41:46.241Z,9.63
2018-09-18T05:44:15.372Z,9.60
2018-09-18T05:46:44.995Z,10.87
2018-09-18T05:49:14.276Z,10.10
2018-09-18T05:51:43.081Z,9.87
2018-09-18T05:54:11.865Z,10.40
2018-09-18T05:56:40.767Z,10.07
2018-09-18T05:59:09.773Z,9.77
2018-09-18T06:01:39.251Z,10.17
2018-09-18T06:04:08.168Z,10.77
2018-09-18T06:06:37.000Z,10.83
2018-09-18T06:09:09.182Z,11.17
2018-09-18T06:11:38.100Z,10.00
2018-09-18T06:14:07.582Z,9.80
2018-09-18T06:16:36.408Z,10.57
2018-09-18T06:19:05.245Z,10.43
2018-09-18T06:21:35.730Z,9.00
2018-09-18T06:24:04.598Z,10.60
2018-09-18T06:26:33.365Z,10.43
2018-09-18T06:29:02.336Z,9.63
2018-09-18T06:31:31.120Z,10.37
2018-09-18T06:34:00.541Z,9.40
2018-09-18T06:36:29.335Z,10.00
2018-09-18T06:38:58.156Z,9.63
2018-09-18T06:41:27.139Z,8.80
2018-09-18T06:43:56.420Z,8.97
2018-09-18T06:46:25.275Z,9.20
2018-09-18T06:48:54.129Z,9.00
2018-09-18T06:51:23.206Z,8.40
2018-09-18T06:53:51.983Z,8.97
2018-09-18T06:56:21.376Z,9.30
2018-09-18T06:58:50.281Z,9.37
2018-09-18T07:01:20.013Z,10.20
2018-09-18T07:03:49.032Z,9.30
2018-09-18T07:06:17.848Z,9.57
2018-09-18T07:08:46.645Z,8.97
2018-09-18T07:11:15.451Z,9.73
2018-09-18T07:14:03.122Z,9.40
2018-09-18T07:16:31.876Z,7.97
2018-09-18T07:19:00.802Z,7.83
2018-09-18T07:21:29.593Z,8.63
2018-09-18T07:23:59.209Z,8.47
2018-09-18T07:26:28.590Z,8.60
2018-09-18T07:28:57.417Z,8.17
2018-09-18T07:31:26.173Z,9.00
2018-09-18T07:33:55.075Z,8.77
2018-09-18T07:36:24.002Z,8.17
2018-09-18T07:38:53.336Z,7.37
2018-09-18T07:41:22.124Z,8.70
2018-09-18T07:43:51.025Z,8.07
2018-09-18T07:46:19.883Z,7.97
2018-09-18T07:48:48.903Z,7.03
2018-09-18T07:51:18.201Z,7.77
2018-09-18T07:53:46.928Z,8.90
2018-09-18T07:56:17.491Z,9.00
2018-09-18T07:58:46.308Z,9.50
2018-09-18T08:01:15.066Z,9.37
2018-09-18T08:03:44.045Z,9.60
2018-09-18T08:06:13.636Z,9.77
2018-09-18T08:08:43.025Z,9.73
2018-09-18T08:11:11.884Z,9.23
2018-09-18T08:13:40.730Z,9.90
2018-09-18T08:16:09.548Z,8.90
2018-09-18T08:18:38.401Z,9.23
2018-09-18T08:21:07.314Z,8.63
2018-09-18T08:23:36.117Z,8.17
2018-09-18T08:26:04.959Z,7.40
2018-09-18T08:28:33.667Z,8.40
2018-09-18T08:31:03.332Z,7.63
2018-09-18T08:33:32.691Z,7.43
2018-09-18T08:36:02.343Z,6.80
2018-09-18T08:38:32.029Z,6.77
2018-09-18T08:41:00.876Z,7.40
2018-09-18T08:43:29.929Z,7.10
2018-09-18T08:45:58.715Z,6.60
2018-09-18T08:48:29.089Z,6.87
2018-09-18T08:50:58.705Z,6.57
2018-09-18T08:53:28.135Z,6.43
2018-09-18T08:55:56.960Z,6.40
2018-09-18T08:58:26.223Z,6.10
2018-09-18T09:00:55.838Z,6.23
2018-09-18T09:03:25.248Z,5.90
2018-09-18T09:05:55.242Z,5.97
2018-09-18T09:08:24.086Z,6.00
2018-09-18T09:10:52.974Z,5.57
2018-09-18T09:13:21.814Z,5.30
2018-09-18T09:15:50.491Z,4.97
2018-09-18T09:18:19.893Z,4.43
2018-09-18T09:20:49.156Z,4.27
2018-09-18T09:23:17.859Z,4.20
2018-09-18T09:25:46.636Z,4.10
2018-09-18T09:28:15.245Z,3.97
2018-09-18T09:30:44.372Z,4.30
2018-09-18T09:33:13.168Z,4.30
2018-09-18T09:35:42.509Z,4.67
2018-09-18T09:38:11.216Z,4.47
2018-09-18T09:40:39.871Z,4.40
2018-09-18T09:43:08.584Z,4.87
2018-09-18T09:45:38.255Z,4.80
2018-09-18T09:48:06.961Z,4.60
2018-09-18T09:50:36.378Z,4.43
2018-09-18T09:53:05.162Z,4.53
2018-09-18T09:55:33.997Z,4.20
2018-09-18T09:58:03.469Z,3.93
2018-09-18T10:00:37.305Z,3.97
2018-09-18T10:03:06.860Z,4.60
2018-09-18T10:05:35.429Z,4.43
2018-09-18T10:08:05.814Z,4.83
2018-09-18T10:10:34.594Z,4.20
2018-09-18T10:13:03.981Z,4.27
2018-09-18T10:15:32.704Z,4.40
2018-09-18T10:18:01.386Z,3.90
2018-09-18T10:20:30.524Z,4.00
2018-09-18T10:22:59.113Z,4.50
2018-09-18T10:25:27.742Z,4.33
2018-09-18T10:27:57.494Z,4.77
2018-09-18T10:30:26.149Z,4.57
2018-09-18T10:32:54.906Z,4.90
2018-09-18T10:35:23.773Z,5.27
2018-09-18T10:37:52.446Z,5.20
2018-09-18T10:40:21.289Z,5.33
2018-09-18T10:42:50.245Z,4.83
2018-09-18T10:45:19.032Z,4.90
2018-09-18T10:47:48.625Z,4.97
2018-09-18T10:50:17.483Z,5.23
2018-09-18T10:52:46.842Z,4.87
2018-09-18T10:55:16.174Z,4.70
2018-09-18T10:57:44.858Z,4.80
2018-09-18T11:00:13.685Z,4.77
2018-09-18T11:02:43.039Z,5.03
2018-09-18T11:05:11.817Z,4.90
2018-09-18T11:07:40.621Z,5.00
2018-09-18T11:10:09.275Z,5.20
2018-09-18T11:12:38.195Z,5.07
2018-09-18T11:15:07.563Z,4.80
2018-09-18T11:17:36.407Z,5.03
2018-09-18T11:20:06.853Z,4.93
2018-09-18T11:22:36.240Z,4.50
2018-09-18T11:25:05.056Z,4.70
2018-09-18T11:27:33.804Z,4.30
2018-09-18T11:30:02.517Z,4.70
2018-09-18T11:32:31.348Z,4.60
2018-09-18T11:35:00.045Z,4.10
2018-09-18T11:37:29.850Z,4.20
2018-09-18T11:39:58.619Z,4.13
2018-09-18T11:42:27.228Z,3.90
2018-09-18T11:44:56.627Z,3.83
2018-09-18T11:47:25.420Z,3.90
2018-09-18T11:49:54.933Z,3.90
2018-09-18T11:52:23.829Z,4.27
2018-09-18T11:54:52.701Z,4.63
2018-09-18T11:57:21.400Z,3.90
2018-09-18T11:59:50.220Z,3.90
2018-09-18T12:02:19.228Z,4.40
2018-09-18T12:04:47.960Z,4.13
2018-09-18T12:07:16.716Z,4.17
2018-09-18T12:09:45.422Z,3.80
2018-09-18T12:12:14.650Z,3.90
2018-09-18T12:14:43.527Z,3.83
2018-09-18T12:17:12.855Z,3.60
2018-09-18T12:19:41.988Z,3.67
2018-09-18T12:22:10.753Z,3.60
2018-09-18T12:24:39.977Z,3.50
2018-09-18T12:27:08.896Z,4.23
2018-09-18T12:29:37.716Z,3.80
2018-09-18T12:32:06.804Z,3.90
2018-09-18T12:34:35.550Z,4.37
2018-09-18T12:37:04.470Z,4.30
2018-09-18T12:39:33.093Z,4.63
2018-09-18T12:42:02.083Z,4.00
2018-09-18T12:44:30.873Z,4.27
2018-09-18T12:47:00.273Z,3.90
2018-09-18T12:49:29.115Z,4.00
2018-09-18T12:51:57.753Z,4.00
2018-09-18T12:54:26.488Z,4.10
2018-09-18T12:56:55.881Z,3.47
2018-09-18T12:59:24.883Z,3.43
2018-09-18T13:01:53.776Z,3.47
2018-09-18T13:04:23.206Z,4.30
2018-09-18T13:06:52.558Z,4.10
2018-09-18T13:09:21.481Z,3.93
2018-09-18T13:11:50.976Z,4.17
2018-09-18T13:14:20.249Z,3.57
2018-09-18T13:16:49.116Z,3.20
2018-09-18T13:19:17.984Z,3.00
2018-09-18T13:21:48.881Z,3.10
2018-09-18T13:24:17.692Z,3.60
2018-09-18T13:26:46.395Z,4.00
2018-09-18T13:29:15.845Z,3.80
2018-09-18T13:31:44.513Z,4.20
2018-09-18T13:34:13.286Z,4.33
2018-09-18T13:36:42.755Z,4.00
2018-09-18T13:39:11.552Z,4.20
2018-09-18T13:41:40.505Z,4.30
2018-09-18T13:44:09.301Z,4.73
2018-09-18T13:46:38.770Z,4.80
2018-09-18T13:49:07.811Z,4.63
2018-09-18T13:51:36.915Z,4.70
2018-09-18T13:54:06.423Z,4.50
2018-09-18T13:56:36.178Z,5.10
2018-09-18T13:59:04.905Z,5.03
2018-09-18T14:01:33.818Z,5.37
2018-09-18T14:04:02.578Z,4.80
2018-09-18T14:06:31.281Z,5.13
2018-09-18T14:09:00.807Z,5.50
2018-09-18T14:11:30.281Z,6.03
2018-09-18T14:13:59.068Z,5.40
2018-09-18T14:16:28.002Z,5.17
2018-09-18T14:18:56.994Z,5.87
2018-09-18T14:21:25.962Z,5.10
2018-09-18T14:23:54.672Z,4.90
2018-09-18T14:26:23.610Z,5.27
2018-09-18T14:28:52.256Z,5.40
2018-09-18T14:31:21.060Z,4.77
2018-09-18T14:33:49.700Z,5.20
2018-09-18T14:36:18.585Z,5.37
2018-09-18T14:38:47.461Z,5.20
2018-09-18T14:41:16.618Z,4.97
2018-09-18T14:43:45.524Z,5.00
2018-09-18T14:46:14.204Z,4.93
2018-09-18T14:48:43.796Z,4.57
2018-09-18T14:51:12.647Z,4.87
2018-09-18T14:53:42.036Z,4.67
2018-09-18T14:56:10.866Z,4.30
2018-09-18T14:58:39.600Z,4.23
2018-09-18T15:01:08.505Z,4.70
2018-09-18T15:03:37.274Z,4.83
2018-09-18T15:06:06.297Z,5.20
2018-09-18T15:08:35.162Z,5.00
2018-09-18T15:11:04.871Z,4.80
2018-09-18T15:13:33.988Z,5.60
2018-09-18T15:16:02.919Z,5.70
2018-09-18T15:18:32.420Z,6.10
2018-09-18T15:21:01.316Z,6.13
2018-09-18T15:23:30.113Z,6.10
2018-09-18T15:25:59.050Z,5.47
2018-09-18T15:28:28.220Z,5.50
2018-09-18T15:30:57.028Z,5.70
2018-09-18T15:33:26.560Z,5.60
2018-09-18T15:35:59.445Z,5.47
2018-09-18T15:41:26.309Z,6.00
2018-09-18T15:44:12.814Z,5.77
2018-09-18T15:46:41.681Z,5.93
2018-09-18T15:49:10.774Z,6.33
2018-09-18T15:51:39.563Z,6.03
2018-09-18T15:54:08.430Z,6.80
2018-09-18T15:56:37.498Z,6.10
2018-09-18T15:59:07.082Z,6.03
2018-09-18T16:01:36.289Z,6.20
2018-09-18T16:04:05.206Z,6.10
2018-09-18T16:06:34.842Z,6.40
2018-09-18T16:09:05.284Z,5.90
2018-09-18T16:11:34.164Z,6.20
2018-09-18T16:14:02.948Z,6.47
2018-09-18T16:16:32.053Z,5.90
2018-09-18T16:19:01.557Z,6.70
2018-09-18T16:21:31.253Z,6.17
2018-09-18T16:24:00.345Z,6.20
2018-09-18T16:26:29.291Z,6.53
2018-09-18T16:28:58.872Z,6.00
2018-09-18T16:31:28.511Z,6.83
2018-09-18T16:33:57.963Z,6.30
2018-09-18T16:36:27.346Z,5.83
2018-09-18T16:38:56.143Z,6.00
2018-09-18T16:41:25.566Z,6.03
2018-09-18T16:43:55.160Z,6.33
2018-09-18T16:46:24.742Z,5.83
2018-09-18T16:48:54.195Z,5.70
2018-09-18T16:51:23.734Z,6.27
2018-09-18T16:53:53.227Z,7.20
2018-09-18T16:56:22.634Z,5.90
2018-09-18T16:58:52.407Z,6.03
2018-09-18T17:01:21.214Z,6.60
2018-09-18T17:03:51.619Z,5.87
2018-09-18T17:06:20.505Z,6.27
2018-09-18T17:08:49.560Z,5.83
2018-09-18T17:11:18.371Z,6.07
2018-09-18T17:13:47.311Z,5.17
2018-09-18T17:16:16.191Z,5.00
2018-09-18T17:18:44.900Z,5.30
2018-09-18T17:21:14.442Z,4.67
2018-09-18T17:23:43.577Z,4.60
2018-09-18T17:26:12.547Z,4.87
2018-09-18T17:28:41.576Z,4.80
2018-09-18T17:31:10.143Z,5.90
2018-09-18T17:33:39.156Z,5.27
2018-09-18T17:36:07.941Z,5.10
2018-09-18T17:38:37.659Z,4.70
2018-09-18T17:41:07.719Z,4.50
2018-09-18T17:43:36.822Z,3.50
2018-09-18T17:46:05.837Z,3.83
2018-09-18T17:48:35.356Z,3.13
2018-09-18T17:51:04.961Z,2.97
2018-09-18T17:53:33.835Z,2.87
2018-09-18T17:56:02.637Z,2.17
2018-09-18T17:58:31.623Z,1.87
2018-09-18T18:01:01.064Z,1.90
2018-09-18T18:03:29.886Z,1.50
2018-09-18T18:07:23.174Z,1.70
2018-09-18T18:09:51.983Z,1.80
2018-09-18T18:12:21.506Z,2.27
2018-09-18T18:14:51.083Z,3.50
2018-09-18T18:17:19.881Z,3.10
2018-09-18T18:19:48.680Z,3.20
2018-09-18T18:22:17.633Z,2.80
2018-09-18T18:24:47.204Z,2.50
2018-09-18T18:27:16.454Z,3.87
2018-09-18T18:29:45.329Z,3.20
2018-09-18T18:32:14.186Z,3.20
2018-09-18T18:34:43.060Z,2.77
2018-09-18T18:37:12.147Z,2.50
2018-09-18T18:39:41.650Z,2.40
2018-09-18T18:42:10.590Z,2.20
2018-09-18T18:44:39.560Z,2.93
2018-09-18T18:47:08.734Z,2.53
2018-09-18T18:49:38.661Z,2.87
2018-09-18T18:52:08.278Z,2.50
2018-09-18T18:54:37.434Z,2.77
2018-09-18T18:57:06.549Z,2.70
2018-09-18T18:59:36.083Z,2.80
2018-09-18T19:02:05.571Z,2.10
2018-09-18T19:04:35.053Z,2.37
2018-09-18T19:07:03.987Z,2.30
2018-09-18T19:09:33.004Z,2.30
2018-09-18T19:12:01.889Z,2.60
2018-09-18T19:14:31.242Z,2.57
2018-09-18T19:17:00.154Z,4.70
2018-09-18T19:19:29.078Z,4.07
2018-09-18T19:21:58.010Z,3.27
2018-09-18T19:24:27.089Z,3.13
2018-09-18T19:26:56.064Z,2.33
2018-09-18T19:29:25.697Z,2.80
2018-09-18T19:31:54.489Z,2.57
2018-09-18T19:34:23.282Z,3.00
2018-09-18T19:36:52.332Z,2.13
2018-09-18T19:39:22.026Z,2.70
2018-09-18T19:41:50.983Z,2.57
2018-09-18T19:44:19.876Z,3.00
2018-09-18T19:46:49.425Z,7.30
2018-09-18T19:49:19.098Z,6.53
2018-09-18T19:51:48.681Z,4.13
2018-09-18T19:54:18.124Z,3.50
2018-09-18T19:56:47.925Z,4.40
2018-09-18T19:59:17.265Z,3.80
2018-09-18T20:01:46.150Z,3.90
2018-09-18T20:04:14.967Z,3.73
2018-09-18T20:06:43.945Z,3.80
2018-09-18T20:09:12.946Z,4.13
2018-09-18T20:11:41.812Z,4.23
2018-09-18T20:14:10.758Z,4.90
2018-09-18T20:16:39.744Z,4.90
2018-09-18T20:19:08.751Z,5.07
2018-09-18T20:21:37.629Z,4.77
2018-09-18T20:24:06.408Z,3.87
2018-09-18T20:26:35.317Z,3.93
2018-09-18T20:29:04.907Z,3.80
2018-09-18T20:31:33.812Z,3.17
2018-09-18T20:34:02.618Z,3.20
2018-09-18T20:36:31.721Z,2.70
2018-09-18T20:39:01.156Z,2.63
2018-09-18T20:41:30.129Z,2.93
2018-09-18T20:43:59.050Z,2.90
2018-09-18T20:46:27.895Z,3.30
2018-09-18T20:48:56.946Z,2.90
2018-09-18T20:51:25.929Z,3.90
2018-09-18T20:53:55.621Z,3.13
2018-09-18T20:56:24.954Z,3.00
2018-09-18T20:58:54.561Z,3.17
2018-09-18T21:01:24.050Z,3.80
2018-09-18T21:03:53.685Z,3.40
2018-09-18T21:06:23.238Z,3.63
2018-09-18T21:08:52.104Z,3.60
2018-09-18T21:11:20.920Z,3.70
2018-09-18T21:13:49.921Z,4.40
2018-09-18T21:16:19.461Z,3.83
2018-09-18T21:18:48.444Z,3.60
2018-09-18T21:21:17.524Z,3.57
2018-09-18T21:23:47.123Z,3.90
2018-09-18T21:26:17.179Z,3.50
2018-09-18T21:28:46.198Z,3.33
2018-09-18T21:31:15.056Z,4.13
2018-09-18T21:33:43.918Z,3.80
2018-09-18T21:36:12.817Z,4.30
2018-09-18T21:38:42.662Z,4.60
2018-09-18T21:41:11.453Z,4.60
2018-09-18T21:43:40.401Z,4.23
2018-09-18T21:46:09.327Z,4.20
2018-09-18T21:48:38.148Z,4.17
2018-09-18T21:51:07.160Z,4.00
2018-09-18T21:53:36.973Z,4.17
2018-09-18T21:56:05.937Z,4.77
2018-09-18T21:58:34.790Z,5.00
2018-09-18T22:01:05.384Z,5.00
2018-09-18T22:03:35.232Z,5.67
2018-09-18T22:06:04.469Z,6.30
2018-09-18T22:08:34.142Z,5.97
2018-09-18T22:11:03.488Z,5.73
2018-09-18T22:13:32.954Z,6.33
2018-09-18T22:16:01.745Z,6.43
2018-09-18T22:18:30.571Z,6.50
2018-09-18T22:20:59.384Z,6.23
2018-09-18T22:23:28.279Z,5.60
2018-09-18T22:25:57.783Z,5.50
2018-09-18T22:28:26.550Z,5.10
2018-09-18T22:30:56.409Z,5.43
2018-09-18T22:33:25.303Z,5.77
2018-09-18T22:35:54.120Z,5.30
2018-09-18T22:38:23.433Z,5.50
2018-09-18T22:40:52.285Z,6.13
2018-09-18T22:43:21.309Z,6.17
2018-09-18T22:45:50.294Z,6.03
2018-09-18T22:48:19.076Z,5.63
2018-09-18T22:50:48.444Z,5.70
2018-09-18T22:53:17.344Z,5.53
2018-09-18T22:55:46.068Z,5.73
2018-09-18T22:58:15.053Z,6.50
2018-09-18T23:00:44.615Z,6.40
2018-09-18T23:03:13.902Z,6.30
2018-09-18T23:05:42.734Z,7.07
2018-09-18T23:08:12.436Z,6.70
2018-09-18T23:10:41.293Z,6.57
2018-09-18T23:13:10.139Z,6.60
2018-09-18T23:15:39.031Z,6.43
2018-09-18T23:18:07.903Z,7.30
2018-09-18T23:20:36.744Z,7.33
2018-09-18T23:23:05.565Z,7.23
2018-09-18T23:25:35.025Z,6.80
2018-09-18T23:28:03.818Z,7.00
2018-09-18T23:30:32.598Z,6.57
2018-09-18T23:33:02.003Z,7.10
2018-09-18T23:35:31.486Z,7.30
2018-09-18T23:38:00.932Z,7.77
2018-09-18T23:40:30.527Z,8.70
2018-09-18T23:43:00.296Z,7.97
2018-09-18T23:45:29.125Z,7.90
2018-09-18T23:47:58.015Z,7.37
2018-09-18T23:50:27.831Z,6.60
2018-09-18T23:53:12.929Z,6.97
2018-09-18T23:55:41.840Z,7.87
2018-09-18T23:58:10.935Z,7.40
